sensor_id;sensor_type;location;lat;lon;timestamp;pressure;altitude;pressure_sealevel;temperature;humidity
56241;BME280;42155;53.096;23.226;2022-08-19T00:00:39;99782.03;;;19.56;77.00
56241;BME280;42155;53.096;23.226;2022-08-19T00:02:39;99783.88;;;19.55;76.98
56241;BME280;42155;53.096;23.226;2022-08-19T00:04:40;99784.06;;;19.54;77.04
56241;BME280;42155;53.096;23.226;2022-08-19T00:06:42;99770.69;;;19.46;77.18
56241;BME280;42155;53.096;23.226;2022-08-19T00:08:44;99772.00;;;19.50;77.19
56241;BME280;42155;53.096;23.226;2022-08-19T00:10:44;99782.75;;;19.50;77.46
56241;BME280;42155;53.096;23.226;2022-08-19T00:12:45;99771.53;;;19.46;77.48
56241;BME280;42155;53.096;23.226;2022-08-19T00:14:45;99774.59;;;19.58;76.72
56241;BME280;42155;53.096;23.226;2022-08-19T00:16:46;99779.66;;;19.61;77.06
56241;BME280;42155;53.096;23.226;2022-08-19T00:18:47;99770.53;;;19.62;76.40
56241;BME280;42155;53.096;23.226;2022-08-19T00:20:48;99768.88;;;19.61;76.39
56241;BME280;42155;53.096;23.226;2022-08-19T00:22:48;99775.34;;;19.52;76.55
56241;BME280;42155;53.096;23.226;2022-08-19T00:24:49;99784.44;;;19.51;76.87
56241;BME280;42155;53.096;23.226;2022-08-19T00:26:50;99782.94;;;19.48;77.04
56241;BME280;42155;53.096;23.226;2022-08-19T00:28:50;99768.94;;;19.38;77.25
56241;BME280;42155;53.096;23.226;2022-08-19T00:30:50;99783.88;;;19.41;77.02
56241;BME280;42155;53.096;23.226;2022-08-19T00:32:51;99782.59;;;19.37;76.92
56241;BME280;42155;53.096;23.226;2022-08-19T00:34:52;99772.94;;;19.27;77.05
56241;BME280;42155;53.096;23.226;2022-08-19T00:36:52;99792.31;;;19.38;77.02
56241;BME280;42155;53.096;23.226;2022-08-19T00:38:53;99776.25;;;19.29;77.18
56241;BME280;42155;53.096;23.226;2022-08-19T00:40:53;99790.00;;;19.34;77.14
56241;BME280;42155;53.096;23.226;2022-08-19T00:42:54;99790.00;;;19.34;77.06
56241;BME280;42155;53.096;23.226;2022-08-19T00:44:54;99788.69;;;19.30;77.33
56241;BME280;42155;53.096;23.226;2022-08-19T00:46:56;99790.75;;;19.28;77.50
56241;BME280;42155;53.096;23.226;2022-08-19T00:48:58;99789.06;;;19.27;77.34
56241;BME280;42155;53.096;23.226;2022-08-19T00:50:59;99791.75;;;19.27;77.64
56241;BME280;42155;53.096;23.226;2022-08-19T00:53:00;99761.00;;;19.07;77.58
56241;BME280;42155;53.096;23.226;2022-08-19T00:55:03;99793.97;;;19.24;77.62
56241;BME280;42155;53.096;23.226;2022-08-19T00:57:09;99788.75;;;19.22;77.58
56241;BME280;42155;53.096;23.226;2022-08-19T00:59:10;99788.13;;;19.20;77.23
56241;BME280;42155;53.096;23.226;2022-08-19T01:01:11;99789.97;;;19.20;77.36
56241;BME280;42155;53.096;23.226;2022-08-19T01:03:15;99796.38;;;19.19;77.39
56241;BME280;42155;53.096;23.226;2022-08-19T01:05:20;99786.25;;;19.06;77.13
56241;BME280;42155;53.096;23.226;2022-08-19T01:07:21;99806.00;;;19.13;77.32
56241;BME280;42155;53.096;23.226;2022-08-19T01:09:22;99801.00;;;19.10;76.93
56241;BME280;42155;53.096;23.226;2022-08-19T01:11:23;99800.53;;;19.06;77.02
56241;BME280;42155;53.096;23.226;2022-08-19T01:13:26;99807.75;;;19.06;77.20
56241;BME280;42155;53.096;23.226;2022-08-19T01:15:32;99812.13;;;19.07;77.17
56241;BME280;42155;53.096;23.226;2022-08-19T01:17:34;99788.53;;;18.94;77.06
56241;BME280;42155;53.096;23.226;2022-08-19T01:19:39;99807.75;;;19.06;76.92
56241;BME280;42155;53.096;23.226;2022-08-19T01:21:45;99812.31;;;19.05;77.02
56241;BME280;42155;53.096;23.226;2022-08-19T01:23:48;99807.41;;;19.09;76.83
56241;BME280;42155;53.096;23.226;2022-08-19T01:25:51;99816.13;;;19.11;76.69
56241;BME280;42155;53.096;23.226;2022-08-19T01:27:52;99823.84;;;19.14;76.73
56241;BME280;42155;53.096;23.226;2022-08-19T01:29:52;99824.47;;;19.16;76.86
56241;BME280;42155;53.096;23.226;2022-08-19T01:31:53;99822.06;;;19.21;76.68
56241;BME280;42155;53.096;23.226;2022-08-19T01:33:56;99825.34;;;19.31;76.66
56241;BME280;42155;53.096;23.226;2022-08-19T01:36:15;99821.53;;;19.41;76.68
56241;BME280;42155;53.096;23.226;2022-08-19T01:38:23;99822.50;;;19.48;76.56
56241;BME280;42155;53.096;23.226;2022-08-19T01:40:29;99815.16;;;19.56;76.39
56241;BME280;42155;53.096;23.226;2022-08-19T01:42:30;99811.19;;;19.67;76.12
56241;BME280;42155;53.096;23.226;2022-08-19T01:44:30;99811.88;;;19.69;76.23
56241;BME280;42155;53.096;23.226;2022-08-19T01:46:31;99815.09;;;19.79;75.64
56241;BME280;42155;53.096;23.226;2022-08-19T01:48:38;99811.03;;;19.83;75.73
56241;BME280;42155;53.096;23.226;2022-08-19T01:50:39;99816.47;;;19.90;75.57
56241;BME280;42155;53.096;23.226;2022-08-19T01:52:41;99819.63;;;19.94;75.37
56241;BME280;42155;53.096;23.226;2022-08-19T01:54:42;99815.34;;;19.99;75.15
56241;BME280;42155;53.096;23.226;2022-08-19T01:56:42;99821.22;;;20.03;75.16
56241;BME280;42155;53.096;23.226;2022-08-19T01:58:49;99817.84;;;20.01;74.90
56241;BME280;42155;53.096;23.226;2022-08-19T02:00:50;99816.19;;;20.00;75.10
56241;BME280;42155;53.096;23.226;2022-08-19T02:02:50;99823.63;;;19.98;75.15
56241;BME280;42155;53.096;23.226;2022-08-19T02:04:50;99821.03;;;19.90;74.93
56241;BME280;42155;53.096;23.226;2022-08-19T02:06:51;99825.88;;;19.79;74.99
56241;BME280;42155;53.096;23.226;2022-08-19T02:08:51;99820.31;;;19.66;75.08
56241;BME280;42155;53.096;23.226;2022-08-19T02:10:51;99831.81;;;19.60;75.28
56241;BME280;42155;53.096;23.226;2022-08-19T02:12:52;99822.97;;;19.51;75.32
56241;BME280;42155;53.096;23.226;2022-08-19T02:14:52;99839.00;;;19.45;75.69
56241;BME280;42155;53.096;23.226;2022-08-19T02:16:52;99830.00;;;19.38;75.81
56241;BME280;42155;53.096;23.226;2022-08-19T02:18:53;99831.75;;;19.30;76.00
56241;BME280;42155;53.096;23.226;2022-08-19T02:20:54;99830.16;;;19.21;76.33
56241;BME280;42155;53.096;23.226;2022-08-19T02:22:56;99837.94;;;19.16;76.50
56241;BME280;42155;53.096;23.226;2022-08-19T02:24:56;99835.97;;;19.10;76.48
56241;BME280;42155;53.096;23.226;2022-08-19T02:26:57;99838.00;;;19.08;76.49
56241;BME280;42155;53.096;23.226;2022-08-19T02:28:57;99842.72;;;19.06;76.08
56241;BME280;42155;53.096;23.226;2022-08-19T02:30:57;99835.84;;;19.03;76.32
56241;BME280;42155;53.096;23.226;2022-08-19T02:32:58;99831.78;;;19.07;76.15
56241;BME280;42155;53.096;23.226;2022-08-19T02:34:58;99837.63;;;19.11;75.96
56241;BME280;42155;53.096;23.226;2022-08-19T02:36:58;99834.59;;;19.14;76.01
56241;BME280;42155;53.096;23.226;2022-08-19T02:38:59;99842.38;;;19.09;75.85
56241;BME280;42155;53.096;23.226;2022-08-19T02:41:06;99838.72;;;19.02;76.05
56241;BME280;42155;53.096;23.226;2022-08-19T02:43:08;99851.88;;;18.97;76.58
56241;BME280;42155;53.096;23.226;2022-08-19T02:45:09;99863.38;;;18.91;76.44
56241;BME280;42155;53.096;23.226;2022-08-19T02:47:09;99850.31;;;18.79;76.42
56241;BME280;42155;53.096;23.226;2022-08-19T02:49:10;99869.16;;;18.79;76.28
56241;BME280;42155;53.096;23.226;2022-08-19T02:51:22;99861.91;;;18.80;76.35
56241;BME280;42155;53.096;23.226;2022-08-19T02:53:26;99864.50;;;18.73;76.54
56241;BME280;42155;53.096;23.226;2022-08-19T02:55:27;99847.91;;;18.62;76.67
56241;BME280;42155;53.096;23.226;2022-08-19T02:57:30;99873.94;;;18.69;76.57
56241;BME280;42155;53.096;23.226;2022-08-19T02:59:31;99863.19;;;18.61;76.80
56241;BME280;42155;53.096;23.226;2022-08-19T03:01:32;99868.72;;;18.68;76.42
56241;BME280;42155;53.096;23.226;2022-08-19T03:03:33;99862.00;;;18.64;76.89
56241;BME280;42155;53.096;23.226;2022-08-19T03:05:33;99861.19;;;18.63;76.89
56241;BME280;42155;53.096;23.226;2022-08-19T03:07:33;99796.25;;;18.20;77.60
56241;BME280;42155;53.096;23.226;2022-08-19T03:09:36;99857.41;;;18.49;77.05
56241;BME280;42155;53.096;23.226;2022-08-19T03:11:37;99869.41;;;18.62;77.15
56241;BME280;42155;53.096;23.226;2022-08-19T03:13:38;99862.34;;;18.61;76.99
56241;BME280;42155;53.096;23.226;2022-08-19T03:15:40;99870.72;;;18.66;77.07
56241;BME280;42155;53.096;23.226;2022-08-19T03:17:41;99867.00;;;18.67;77.19
56241;BME280;42155;53.096;23.226;2022-08-19T03:19:41;99857.16;;;18.59;76.91
56241;BME280;42155;53.096;23.226;2022-08-19T03:21:42;99860.66;;;18.68;77.01
56241;BME280;42155;53.096;23.226;2022-08-19T03:23:43;99846.56;;;18.57;76.85
56241;BME280;42155;53.096;23.226;2022-08-19T03:25:47;99870.91;;;18.72;76.83
56241;BME280;42155;53.096;23.226;2022-08-19T03:27:48;99868.84;;;18.74;76.61
56241;BME280;42155;53.096;23.226;2022-08-19T03:29:48;99875.25;;;18.73;76.93
56241;BME280;42155;53.096;23.226;2022-08-19T03:31:48;99876.28;;;18.72;77.13
56241;BME280;42155;53.096;23.226;2022-08-19T03:33:50;99837.75;;;18.49;77.04
56241;BME280;42155;53.096;23.226;2022-08-19T03:36:21;99890.66;;;18.79;76.69
56241;BME280;42155;53.096;23.226;2022-08-19T03:38:22;99887.25;;;18.86;76.73
56241;BME280;42155;53.096;23.226;2022-08-19T03:40:22;99884.41;;;18.87;76.86
56241;BME280;42155;53.096;23.226;2022-08-19T03:42:22;99852.91;;;18.73;76.66
56241;BME280;42155;53.096;23.226;2022-08-19T03:44:23;99885.34;;;18.94;76.46
56241;BME280;42155;53.096;23.226;2022-08-19T03:46:27;99880.44;;;18.98;76.15
56241;BME280;42155;53.096;23.226;2022-08-19T03:48:27;99879.06;;;19.02;76.32
56241;BME280;42155;53.096;23.226;2022-08-19T03:50:28;99888.47;;;19.06;76.07
56241;BME280;42155;53.096;23.226;2022-08-19T03:52:28;99890.59;;;19.11;76.22
56241;BME280;42155;53.096;23.226;2022-08-19T03:54:29;99877.34;;;19.09;76.14
56241;BME280;42155;53.096;23.226;2022-08-19T03:56:29;99895.34;;;19.46;75.60
56241;BME280;42155;53.096;23.226;2022-08-19T03:58:30;99865.94;;;19.59;74.82
56241;BME280;42155;53.096;23.226;2022-08-19T04:00:30;99890.13;;;20.12;73.87
56241;BME280;42155;53.096;23.226;2022-08-19T04:02:30;99886.50;;;20.34;73.53
56241;BME280;42155;53.096;23.226;2022-08-19T04:04:31;99881.38;;;20.40;72.83
56241;BME280;42155;53.096;23.226;2022-08-19T04:06:33;99862.13;;;20.28;73.21
56241;BME280;42155;53.096;23.226;2022-08-19T04:08:34;99875.50;;;20.36;73.34
56241;BME280;42155;53.096;23.226;2022-08-19T04:10:38;99877.00;;;20.39;73.04
56241;BME280;42155;53.096;23.226;2022-08-19T04:12:38;99869.63;;;20.62;72.71
56241;BME280;42155;53.096;23.226;2022-08-19T04:14:39;99818.66;;;20.67;71.45
56241;BME280;42155;53.096;23.226;2022-08-19T04:16:39;99875.53;;;21.15;71.35
56241;BME280;42155;53.096;23.226;2022-08-19T04:18:41;99875.44;;;21.30;70.77
56241;BME280;42155;53.096;23.226;2022-08-19T04:20:44;99861.59;;;21.33;70.14
56241;BME280;42155;53.096;23.226;2022-08-19T04:22:45;99864.69;;;21.58;70.13
56241;BME280;42155;53.096;23.226;2022-08-19T04:24:46;99882.31;;;21.82;69.09
56241;BME280;42155;53.096;23.226;2022-08-19T04:26:46;99876.22;;;22.08;68.68
56241;BME280;42155;53.096;23.226;2022-08-19T04:28:47;99874.66;;;22.20;67.58
56241;BME280;42155;53.096;23.226;2022-08-19T04:30:49;99872.16;;;22.25;68.13
56241;BME280;42155;53.096;23.226;2022-08-19T04:32:50;99874.75;;;22.47;66.54
56241;BME280;42155;53.096;23.226;2022-08-19T04:34:50;99872.94;;;22.67;66.69
56241;BME280;42155;53.096;23.226;2022-08-19T04:36:53;99867.34;;;22.75;65.84
56241;BME280;42155;53.096;23.226;2022-08-19T04:38:59;99861.50;;;22.72;65.50
56241;BME280;42155;53.096;23.226;2022-08-19T04:40:59;99873.81;;;22.74;65.74
56241;BME280;42155;53.096;23.226;2022-08-19T04:42:59;99879.22;;;22.74;65.13
56241;BME280;42155;53.096;23.226;2022-08-19T04:45:00;99854.25;;;22.85;64.19
56241;BME280;42155;53.096;23.226;2022-08-19T04:47:01;99867.84;;;23.25;62.67
56241;BME280;42155;53.096;23.226;2022-08-19T04:49:03;99867.00;;;23.58;62.94
56241;BME280;42155;53.096;23.226;2022-08-19T04:51:09;99862.75;;;24.02;61.17
56241;BME280;42155;53.096;23.226;2022-08-19T04:53:10;99867.81;;;24.50;59.89
56241;BME280;42155;53.096;23.226;2022-08-19T04:55:11;99865.69;;;24.90;59.19
56241;BME280;42155;53.096;23.226;2022-08-19T04:57:12;99850.97;;;25.11;57.97
56241;BME280;42155;53.096;23.226;2022-08-19T04:59:12;99857.84;;;25.38;57.35
56241;BME280;42155;53.096;23.226;2022-08-19T05:01:27;99870.47;;;25.76;57.22
56241;BME280;42155;53.096;23.226;2022-08-19T05:03:28;99857.47;;;25.97;55.65
56241;BME280;42155;53.096;23.226;2022-08-19T05:05:28;99865.56;;;26.22;54.76
56241;BME280;42155;53.096;23.226;2022-08-19T05:07:29;99874.72;;;26.46;54.52
56241;BME280;42155;53.096;23.226;2022-08-19T05:09:29;99833.66;;;26.47;53.97
56241;BME280;42155;53.096;23.226;2022-08-19T05:11:33;99867.78;;;26.91;53.27
56241;BME280;42155;53.096;23.226;2022-08-19T05:13:34;99860.78;;;27.14;53.00
56241;BME280;42155;53.096;23.226;2022-08-19T05:15:34;99863.88;;;27.29;52.37
56241;BME280;42155;53.096;23.226;2022-08-19T05:17:34;99868.13;;;27.49;51.79
56241;BME280;42155;53.096;23.226;2022-08-19T05:19:35;99839.13;;;27.42;51.44
56241;BME280;42155;53.096;23.226;2022-08-19T05:21:35;99843.94;;;27.64;51.34
56241;BME280;42155;53.096;23.226;2022-08-19T05:23:35;99848.00;;;27.73;50.73
56241;BME280;42155;53.096;23.226;2022-08-19T05:25:39;99867.88;;;28.09;50.40
56241;BME280;42155;53.096;23.226;2022-08-19T05:27:41;99866.03;;;28.38;49.46
56241;BME280;42155;53.096;23.226;2022-08-19T05:29:42;99864.34;;;28.77;49.09
56241;BME280;42155;53.096;23.226;2022-08-19T05:31:42;99856.91;;;29.18;48.43
56241;BME280;42155;53.096;23.226;2022-08-19T05:33:43;99856.00;;;29.63;47.56
56241;BME280;42155;53.096;23.226;2022-08-19T05:35:43;99861.25;;;30.25;45.56
56241;BME280;42155;53.096;23.226;2022-08-19T05:37:44;99847.44;;;31.23;44.12
56241;BME280;42155;53.096;23.226;2022-08-19T05:39:44;99857.00;;;32.48;41.65
56241;BME280;42155;53.096;23.226;2022-08-19T05:41:47;99859.59;;;33.61;40.06
56241;BME280;42155;53.096;23.226;2022-08-19T05:43:48;99851.88;;;34.54;38.08
56241;BME280;42155;53.096;23.226;2022-08-19T05:45:48;99851.97;;;35.51;36.68
56241;BME280;42155;53.096;23.226;2022-08-19T05:47:49;99855.16;;;36.35;35.61
56241;BME280;42155;53.096;23.226;2022-08-19T05:49:49;99859.00;;;37.15;33.40
56241;BME280;42155;53.096;23.226;2022-08-19T05:51:49;99847.09;;;37.47;32.69
56241;BME280;42155;53.096;23.226;2022-08-19T05:53:50;99842.44;;;38.30;31.40
56241;BME280;42155;53.096;23.226;2022-08-19T05:55:51;99828.25;;;39.04;30.10
56241;BME280;42155;53.096;23.226;2022-08-19T05:57:51;99857.72;;;39.99;29.73
56241;BME280;42155;53.096;23.226;2022-08-19T05:59:51;99859.03;;;40.84;28.02
56241;BME280;42155;53.096;23.226;2022-08-19T06:01:52;99866.50;;;41.53;26.80
56241;BME280;42155;53.096;23.226;2022-08-19T06:03:53;99867.00;;;42.02;26.52
56241;BME280;42155;53.096;23.226;2022-08-19T06:05:53;99867.69;;;42.50;25.64
56241;BME280;42155;53.096;23.226;2022-08-19T06:07:54;99879.22;;;42.48;25.77
56241;BME280;42155;53.096;23.226;2022-08-19T06:09:55;99871.66;;;42.49;25.45
56241;BME280;42155;53.096;23.226;2022-08-19T06:11:57;99877.03;;;41.94;25.94
56241;BME280;42155;53.096;23.226;2022-08-19T06:14:01;99876.88;;;40.66;27.75
56241;BME280;42155;53.096;23.226;2022-08-19T06:16:02;99877.78;;;39.11;29.15
56241;BME280;42155;53.096;23.226;2022-08-19T06:18:02;99869.53;;;37.78;30.64
56241;BME280;42155;53.096;23.226;2022-08-19T06:20:05;99876.66;;;37.00;31.98
56241;BME280;42155;53.096;23.226;2022-08-19T06:22:05;99857.34;;;36.38;33.06
56241;BME280;42155;53.096;23.226;2022-08-19T06:24:08;99866.59;;;36.05;32.77
56241;BME280;42155;53.096;23.226;2022-08-19T06:26:14;99868.00;;;35.78;33.58
56241;BME280;42155;53.096;23.226;2022-08-19T06:28:15;99872.56;;;35.30;34.35
56241;BME280;42155;53.096;23.226;2022-08-19T06:30:15;99875.84;;;34.92;35.17
56241;BME280;42155;53.096;23.226;2022-08-19T06:32:17;99872.09;;;34.78;34.91
56241;BME280;42155;53.096;23.226;2022-08-19T06:34:18;99872.72;;;34.65;35.42
56241;BME280;42155;53.096;23.226;2022-08-19T06:36:27;99869.75;;;34.56;35.38
56241;BME280;42155;53.096;23.226;2022-08-19T06:38:27;99863.19;;;34.42;35.72
56241;BME280;42155;53.096;23.226;2022-08-19T06:40:28;99864.66;;;34.19;35.67
56241;BME280;42155;53.096;23.226;2022-08-19T06:42:28;99863.63;;;33.94;36.72
56241;BME280;42155;53.096;23.226;2022-08-19T06:44:30;99855.44;;;33.79;37.22
56241;BME280;42155;53.096;23.226;2022-08-19T06:46:31;99869.25;;;33.43;37.64
56241;BME280;42155;53.096;23.226;2022-08-19T06:48:31;99875.28;;;33.20;38.35
56241;BME280;42155;53.096;23.226;2022-08-19T06:50:32;99874.72;;;33.13;38.25
56241;BME280;42155;53.096;23.226;2022-08-19T06:52:34;99874.72;;;33.08;37.85
56241;BME280;42155;53.096;23.226;2022-08-19T06:54:34;99873.06;;;32.91;38.16
56241;BME280;42155;53.096;23.226;2022-08-19T06:56:35;99869.72;;;32.79;38.10
56241;BME280;42155;53.096;23.226;2022-08-19T06:58:35;99870.75;;;32.63;38.92
56241;BME280;42155;53.096;23.226;2022-08-19T07:00:36;99864.69;;;32.46;38.42
56241;BME280;42155;53.096;23.226;2022-08-19T07:02:36;99872.91;;;32.40;38.92
56241;BME280;42155;53.096;23.226;2022-08-19T07:04:37;99874.53;;;32.36;38.93
56241;BME280;42155;53.096;23.226;2022-08-19T07:06:37;99872.50;;;32.16;39.43
56241;BME280;42155;53.096;23.226;2022-08-19T07:08:38;99873.75;;;31.93;39.70
56241;BME280;42155;53.096;23.226;2022-08-19T07:10:43;99875.97;;;31.91;39.77
56241;BME280;42155;53.096;23.226;2022-08-19T07:12:43;99874.56;;;31.89;39.73
56241;BME280;42155;53.096;23.226;2022-08-19T07:14:43;99885.03;;;31.97;40.13
56241;BME280;42155;53.096;23.226;2022-08-19T07:16:44;99878.75;;;32.02;39.44
56241;BME280;42155;53.096;23.226;2022-08-19T07:18:46;99879.84;;;32.01;39.41
56241;BME280;42155;53.096;23.226;2022-08-19T07:20:47;99876.00;;;32.02;39.59
56241;BME280;42155;53.096;23.226;2022-08-19T07:22:47;99880.50;;;31.76;39.72
56241;BME280;42155;53.096;23.226;2022-08-19T07:24:48;99878.69;;;31.49;40.51
56241;BME280;42155;53.096;23.226;2022-08-19T07:26:48;99870.16;;;31.46;40.79
56241;BME280;42155;53.096;23.226;2022-08-19T07:28:49;99874.53;;;31.47;40.84
56241;BME280;42155;53.096;23.226;2022-08-19T07:30:49;99867.41;;;31.46;41.60
56241;BME280;42155;53.096;23.226;2022-08-19T07:32:49;99868.00;;;31.53;40.98
56241;BME280;42155;53.096;23.226;2022-08-19T07:34:50;99868.59;;;31.60;41.16
56241;BME280;42155;53.096;23.226;2022-08-19T07:36:50;99861.19;;;31.60;40.47
56241;BME280;42155;53.096;23.226;2022-08-19T07:38:51;99868.66;;;31.70;40.90
56241;BME280;42155;53.096;23.226;2022-08-19T07:40:52;99859.78;;;31.53;40.82
56241;BME280;42155;53.096;23.226;2022-08-19T07:42:52;99872.38;;;31.49;40.91
56241;BME280;42155;53.096;23.226;2022-08-19T07:44:52;99870.63;;;31.37;40.90
56241;BME280;42155;53.096;23.226;2022-08-19T07:46:55;99868.88;;;31.26;41.24
56241;BME280;42155;53.096;23.226;2022-08-19T07:48:56;99867.19;;;31.20;40.99
56241;BME280;42155;53.096;23.226;2022-08-19T07:51:01;99870.75;;;31.21;41.66
56241;BME280;42155;53.096;23.226;2022-08-19T07:53:02;99875.25;;;31.32;41.61
56241;BME280;42155;53.096;23.226;2022-08-19T07:55:04;99871.53;;;31.48;41.01
56241;BME280;42155;53.096;23.226;2022-08-19T07:57:05;99870.78;;;31.58;40.68
56241;BME280;42155;53.096;23.226;2022-08-19T07:59:06;99854.19;;;31.42;41.04
56241;BME280;42155;53.096;23.226;2022-08-19T08:01:09;99871.00;;;31.51;40.66
56241;BME280;42155;53.096;23.226;2022-08-19T08:03:12;99858.69;;;31.54;40.50
56241;BME280;42155;53.096;23.226;2022-08-19T08:05:12;99877.88;;;31.54;40.30
56241;BME280;42155;53.096;23.226;2022-08-19T08:07:12;99871.25;;;31.44;39.92
56241;BME280;42155;53.096;23.226;2022-08-19T08:09:14;99861.81;;;31.30;40.54
56241;BME280;42155;53.096;23.226;2022-08-19T08:11:18;99876.06;;;31.32;40.42
56241;BME280;42155;53.096;23.226;2022-08-19T08:13:19;99873.88;;;31.29;40.30
56241;BME280;42155;53.096;23.226;2022-08-19T08:15:19;99871.69;;;31.31;40.84
56241;BME280;42155;53.096;23.226;2022-08-19T08:17:22;99871.41;;;31.33;40.71
56241;BME280;42155;53.096;23.226;2022-08-19T08:19:25;99877.84;;;31.49;40.61
56241;BME280;42155;53.096;23.226;2022-08-19T08:21:26;99886.16;;;31.59;40.27
56241;BME280;42155;53.096;23.226;2022-08-19T08:23:26;99880.72;;;31.69;40.80
56241;BME280;42155;53.096;23.226;2022-08-19T08:25:26;99876.91;;;31.75;40.25
56241;BME280;42155;53.096;23.226;2022-08-19T08:27:27;99884.06;;;31.76;40.06
56241;BME280;42155;53.096;23.226;2022-08-19T08:29:28;99875.56;;;31.78;40.11
56241;BME280;42155;53.096;23.226;2022-08-19T08:31:29;99883.88;;;31.83;40.47
56241;BME280;42155;53.096;23.226;2022-08-19T08:33:29;99878.41;;;31.88;39.97
56241;BME280;42155;53.096;23.226;2022-08-19T08:35:30;99885.28;;;31.90;40.31
56241;BME280;42155;53.096;23.226;2022-08-19T08:37:30;99883.69;;;32.00;40.07
56241;BME280;42155;53.096;23.226;2022-08-19T08:39:30;99881.53;;;32.12;39.61
56241;BME280;42155;53.096;23.226;2022-08-19T08:43:56;99871.97;;;32.19;39.80
56241;BME280;42155;53.096;23.226;2022-08-19T08:46:10;99887.66;;;32.24;39.12
56241;BME280;42155;53.096;23.226;2022-08-19T08:48:21;99882.34;;;32.12;39.23
56241;BME280;42155;53.096;23.226;2022-08-19T08:50:34;99882.94;;;32.14;38.80
56241;BME280;42155;53.096;23.226;2022-08-19T08:52:43;99878.78;;;32.07;38.56
56241;BME280;42155;53.096;23.226;2022-08-19T08:54:47;99885.09;;;32.12;38.43
56241;BME280;42155;53.096;23.226;2022-08-19T08:56:49;99871.88;;;31.94;38.73
56241;BME280;42155;53.096;23.226;2022-08-19T08:59:03;99880.38;;;31.98;39.70
56241;BME280;42155;53.096;23.226;2022-08-19T09:01:04;99877.88;;;31.91;39.91
56241;BME280;42155;53.096;23.226;2022-08-19T09:03:20;99873.50;;;31.95;40.65
56241;BME280;42155;53.096;23.226;2022-08-19T09:05:21;99870.44;;;31.86;40.79
56241;BME280;42155;53.096;23.226;2022-08-19T09:07:43;99885.81;;;31.87;40.91
56241;BME280;42155;53.096;23.226;2022-08-19T09:09:49;99882.56;;;31.96;40.16
56241;BME280;42155;53.096;23.226;2022-08-19T09:16:19;99885.19;;;31.43;39.93
56241;BME280;42155;53.096;23.226;2022-08-19T09:18:20;99893.53;;;31.26;39.81
56241;BME280;42155;53.096;23.226;2022-08-19T09:20:22;99885.91;;;31.28;39.44
56241;BME280;42155;53.096;23.226;2022-08-19T09:22:23;99887.31;;;31.31;40.14
56241;BME280;42155;53.096;23.226;2022-08-19T09:24:23;99881.63;;;31.42;39.13
56241;BME280;42155;53.096;23.226;2022-08-19T09:26:25;99888.25;;;31.47;38.95
56241;BME280;42155;53.096;23.226;2022-08-19T09:28:25;99870.69;;;31.48;39.04
56241;BME280;42155;53.096;23.226;2022-08-19T09:30:29;99874.88;;;31.55;38.78
56241;BME280;42155;53.096;23.226;2022-08-19T09:32:29;99880.63;;;31.54;38.88
56241;BME280;42155;53.096;23.226;2022-08-19T09:34:31;99873.22;;;31.54;39.10
56241;BME280;42155;53.096;23.226;2022-08-19T09:36:31;99883.41;;;31.59;38.78
56241;BME280;42155;53.096;23.226;2022-08-19T09:38:33;99879.00;;;31.58;39.02
56241;BME280;42155;53.096;23.226;2022-08-19T09:40:33;99880.38;;;31.60;39.40
56241;BME280;42155;53.096;23.226;2022-08-19T09:42:34;99878.56;;;31.71;38.98
56241;BME280;42155;53.096;23.226;2022-08-19T09:44:34;99874.41;;;31.68;38.73
56241;BME280;42155;53.096;23.226;2022-08-19T09:46:34;99885.72;;;31.77;38.33
56241;BME280;42155;53.096;23.226;2022-08-19T09:48:36;99883.25;;;31.76;38.18
56241;BME280;42155;53.096;23.226;2022-08-19T09:50:37;99901.44;;;31.87;38.31
56241;BME280;42155;53.096;23.226;2022-08-19T09:52:38;99891.31;;;31.87;37.49
56241;BME280;42155;53.096;23.226;2022-08-19T09:54:38;99897.31;;;31.84;37.24
56241;BME280;42155;53.096;23.226;2022-08-19T09:56:39;99908.44;;;31.67;36.97
56241;BME280;42155;53.096;23.226;2022-08-19T09:58:40;99879.94;;;31.36;37.16
56241;BME280;42155;53.096;23.226;2022-08-19T10:00:40;99899.69;;;31.38;37.07
56241;BME280;42155;53.096;23.226;2022-08-19T10:02:40;99892.88;;;31.41;37.52
56241;BME280;42155;53.096;23.226;2022-08-19T10:04:41;99889.34;;;31.46;37.96
56241;BME280;42155;53.096;23.226;2022-08-19T10:06:41;99893.69;;;31.41;37.87
56241;BME280;42155;53.096;23.226;2022-08-19T10:08:42;99898.88;;;31.38;38.22
56241;BME280;42155;53.096;23.226;2022-08-19T10:10:43;99902.19;;;31.40;38.94
56241;BME280;42155;53.096;23.226;2022-08-19T10:12:43;99905.28;;;31.49;37.89
56241;BME280;42155;53.096;23.226;2022-08-19T10:14:44;99897.56;;;31.46;38.06
56241;BME280;42155;53.096;23.226;2022-08-19T10:16:44;99897.59;;;31.51;37.97
56241;BME280;42155;53.096;23.226;2022-08-19T10:18:44;99897.09;;;31.54;39.15
56241;BME280;42155;53.096;23.226;2022-08-19T10:20:49;99899.91;;;31.64;38.23
56241;BME280;42155;53.096;23.226;2022-08-19T10:22:49;99904.09;;;31.72;38.00
56241;BME280;42155;53.096;23.226;2022-08-19T10:24:50;99899.44;;;31.77;37.67
56241;BME280;42155;53.096;23.226;2022-08-19T10:26:50;99895.06;;;31.76;37.87
56241;BME280;42155;53.096;23.226;2022-08-19T10:28:51;99897.75;;;31.71;38.23
56241;BME280;42155;53.096;23.226;2022-08-19T10:30:51;99895.84;;;31.72;38.04
56241;BME280;42155;53.096;23.226;2022-08-19T10:32:52;99902.16;;;31.72;38.06
56241;BME280;42155;53.096;23.226;2022-08-19T10:34:52;99887.25;;;31.58;38.26
56241;BME280;42155;53.096;23.226;2022-08-19T10:36:52;99880.00;;;31.47;38.37
56241;BME280;42155;53.096;23.226;2022-08-19T10:38:54;99894.81;;;31.46;38.69
56241;BME280;42155;53.096;23.226;2022-08-19T10:40:55;99890.41;;;31.39;39.07
56241;BME280;42155;53.096;23.226;2022-08-19T10:42:55;99894.31;;;31.49;38.55